Latest Weather Observations for South Channel Island

IDV60801

Issued at 4:02 pm EST Tuesday 26 July 2016 (issued every 30 minutes, with the page automatically refreshed every 10 minutes)

About weather observations | Map of weather stations | Latest weather observations for VIC | Other Formats
Station Details ID: 086344 Name: SOUTH CHANNEL ISLAND Lat: -38.31 Lon: 144.80 Height: 9.0 m
Data from the previous 72 hours. | See also: Recent months for locations in Victoria
Date/Time
EST
Temp
°C
App
Temp
°C
Dew
Point
°C
Rel
Hum
%
Delta-T
°C
Wind Press
QNH
hPa
Press
MSL
hPa
Rain since
9am
mm
Dir  Spd
km/h
Gust
km/h
Spd
kts
Gust
kts
26/04:00pm - - - - - NNW 43 54 23 29 - - -
26/03:30pm - - - - - NNW 43 50 23 27 - - -
26/03:00pm - - - - - NNW 50 59 27 32 - - -
26/02:30pm - - - - - NNW 56 63 30 34 - - -
26/02:00pm - - - - - NNW 52 63 28 34 - - -
26/01:30pm - - - - - NNW 54 61 29 33 - - -
26/01:00pm - - - - - NNW 50 61 27 33 - - -
26/12:30pm - - - - - NNW 50 59 27 32 - - -
26/12:00pm - - - - - NNW 54 63 29 34 - - -
26/11:30am - - - - - NNW 41 50 22 27 - - -
26/11:00am - - - - - NW 44 52 24 28 - - -
26/10:30am - - - - - NNW 46 54 25 29 - - -
26/10:00am - - - - - NNW 43 50 23 27 - - -
26/09:30am - - - - - NNW 41 46 22 25 - - -
26/09:00am - - - - - NNW 44 56 24 30 - - -
26/08:30am - - - - - NW 43 50 23 27 - - -
26/08:00am - - - - - NW 48 56 26 30 - - -
26/07:30am - - - - - NW 39 48 21 26 - - -
26/07:00am - - - - - NW 41 52 22 28 - - -
26/06:30am - - - - - WNW 46 56 25 30 - - -
26/06:00am - - - - - WNW 43 52 23 28 - - -
26/05:30am - - - - - NW 37 44 20 24 - - -
26/05:00am - - - - - WNW 41 54 22 29 - - -
26/04:30am - - - - - WNW 46 56 25 30 - - -
26/04:00am - - - - - WNW 50 63 27 34 - - -
26/03:30am - - - - - WNW 54 63 29 34 - - -
26/03:00am - - - - - WNW 56 65 30 35 - - -
26/02:39am - - - - - WNW 52 72 28 39 - - -
26/02:30am - - - - - WNW 50 59 27 32 - - -
26/02:00am - - - - - NW 50 61 27 33 - - -
26/01:30am - - - - - NW 46 57 25 31 - - -
26/01:00am - - - - - WNW 54 70 29 38 - - -
26/12:30am - - - - - WNW 52 63 28 34 - - -
26/12:00am - - - - - WNW 50 59 27 32 - - -
 
Date/Time
EST
Temp
°C
App
Temp
°C
Dew
Point
°C
Rel
Hum
%
Delta-T
°C
Wind Press
QNH
hPa
Press
MSL
hPa
Rain since
9am
mm
Dir  Spd
km/h
Gust
km/h
Spd
kts
Gust
kts
25/11:30pm - - - - - NW 46 56 25 30 - - -
25/11:03pm - - - - - WNW 59 78 32 42 - - -
25/11:00pm - - - - - WNW 63 78 34 42 - - -
25/10:37pm - - - - - WNW 61 80 33 43 - - -
25/10:30pm - - - - - WNW 57 74 31 40 - - -
25/10:00pm - - - - - WNW 54 74 29 40 - - -
25/09:36pm - - - - - WNW 57 76 31 41 - - -
25/09:30pm - - - - - WNW 54 70 29 38 - - -
25/09:00pm - - - - - WNW 54 65 29 35 - - -
25/08:30pm - - - - - WNW 56 69 30 37 - - -
25/08:01pm - - - - - WNW 57 76 31 41 - - -
25/08:00pm - - - - - WNW 57 72 31 39 - - -
25/07:35pm - - - - - WNW 61 82 33 44 - - -
25/07:30pm - - - - - WNW 57 72 31 39 - - -
25/07:00pm - - - - - NW 54 63 29 34 - - -
25/06:30pm - - - - - NW 59 74 32 40 - - -
25/06:00pm - - - - - WNW 70 89 38 48 - - -
25/05:51pm - - - - - WNW 67 89 36 48 - - -
25/05:45pm - - - - - NW 57 78 31 42 - - -
25/05:43pm - - - - - NW 56 70 30 38 - - -
25/05:30pm - - - - - NNW 56 67 30 36 - - -
25/05:00pm - - - - - N 63 76 34 41 - - -
25/04:30pm - - - - - N 56 70 30 38 - - -
25/04:00pm - - - - - NNW 52 63 28 34 - - -
25/03:30pm - - - - - N 46 59 25 32 - - -
25/03:00pm - - - - - N 48 59 26 32 - - -
25/02:30pm - - - - - N 46 52 25 28 - - -
25/02:00pm - - - - - N 44 52 24 28 - - -
25/01:30pm - - - - - NNW 43 52 23 28 - - -
25/01:00pm - - - - - NW 39 54 21 29 - - -
25/12:30pm - - - - - NW 37 46 20 25 - - -
25/12:00pm - - - - - NW 43 50 23 27 - - -
25/11:30am - - - - - NW 39 48 21 26 - - -
25/11:00am - - - - - WNW 41 52 22 28 - - -
25/10:30am - - - - - WNW 41 54 22 29 - - -
25/10:00am - - - - - WNW 46 56 25 30 - - -
25/09:30am - - - - - WNW 44 52 24 28 - - -
25/09:00am - - - - - WNW 48 59 26 32 - - -
25/08:30am - - - - - WNW 50 59 27 32 - - -
25/08:00am - - - - - WNW 50 61 27 33 - - -
25/07:30am - - - - - WNW 48 56 26 30 - - -
25/07:00am - - - - - WNW 46 56 25 30 - - -
25/06:30am - - - - - NW 44 56 24 30 - - -
25/06:00am - - - - - NW 44 54 24 29 - - -
25/05:30am - - - - - NW 37 46 20 25 - - -
25/05:00am - - - - - NW 41 52 22 28 - - -
25/04:30am - - - - - NW 39 50 21 27 - - -
25/04:00am - - - - - NNW 39 46 21 25 - - -
25/03:30am - - - - - NNW 39 44 21 24 - - -
25/03:00am - - - - - NNW 43 50 23 27 - - -
25/02:30am - - - - - NNW 43 50 23 27 - - -
25/02:00am - - - - - NNW 43 48 23 26 - - -
25/01:30am - - - - - NNW 39 46 21 25 - - -
25/01:00am - - - - - NNW 43 50 23 27 - - -
25/12:30am - - - - - NNW 43 50 23 27 - - -
25/12:00am - - - - - NNW 46 52 25 28 - - -
 
Date/Time
EST
Temp
°C
App
Temp
°C
Dew
Point
°C
Rel
Hum
%
Delta-T
°C
Wind Press
QNH
hPa
Press
MSL
hPa
Rain since
9am
mm
Dir  Spd
km/h
Gust
km/h
Spd
kts
Gust
kts
24/11:30pm - - - - - NNW 41 50 22 27 - - -
24/11:00pm - - - - - NNW 43 48 23 26 - - -
24/10:30pm - - - - - NNW 43 48 23 26 - - -
24/10:00pm - - - - - N 41 48 22 26 - - -
24/09:30pm - - - - - N 43 48 23 26 - - -
24/09:00pm - - - - - N 44 54 24 29 - - -
24/08:30pm - - - - - N 48 57 26 31 - - -
24/08:00pm - - - - - N 56 65 30 35 - - -
24/07:30pm - - - - - N 52 59 28 32 - - -
24/07:00pm - - - - - N 50 56 27 30 - - -
24/06:30pm - - - - - N 46 56 25 30 - - -
24/06:00pm - - - - - N 46 54 25 29 - - -
24/05:30pm - - - - - NNE 46 52 25 28 - - -
24/05:00pm - - - - - N 43 48 23 26 - - -
24/04:30pm - - - - - N 39 44 21 24 - - -
24/04:00pm - - - - - N 39 46 21 25 - - -
24/03:30pm - - - - - N 43 50 23 27 - - -
24/03:00pm - - - - - N 37 46 20 25 - - -
24/02:30pm - - - - - N 39 46 21 25 - - -
24/02:00pm - - - - - N 39 50 21 27 - - -
24/01:30pm - - - - - N 41 48 22 26 - - -
24/01:00pm - - - - - N 43 50 23 27 - - -
24/12:30pm - - - - - N 39 46 21 25 - - -
24/12:00pm - - - - - N 37 43 20 23 - - -
24/11:30am - - - - - N 37 43 20 23 - - -
24/11:00am - - - - - N 35 39 19 21 - - -
24/10:30am - - - - - N 33 39 18 21 - - -
24/10:00am - - - - - N 35 44 19 24 - - -
24/09:30am - - - - - N 33 39 18 21 - - -
24/09:00am - - - - - N 33 39 18 21 - - -
24/08:30am - - - - - N 39 46 21 25 - - -
24/08:00am - - - - - N 39 44 21 24 - - -
24/07:30am - - - - - NNW 37 41 20 22 - - -
24/07:00am - - - - - NNW 35 39 19 21 - - -
24/06:30am - - - - - NNW 32 35 17 19 - - -
24/06:00am - - - - - NW 30 35 16 19 - - -
24/05:30am - - - - - NNW 28 33 15 18 - - -
24/05:00am - - - - - NNW 26 32 14 17 - - -
24/04:30am - - - - - NW 33 39 18 21 - - -
24/04:00am - - - - - NW 33 37 18 20 - - -
24/03:30am - - - - - NW 32 35 17 19 - - -
24/03:00am - - - - - NW 35 39 19 21 - - -
24/02:30am - - - - - NW 33 37 18 20 - - -
24/02:00am - - - - - NW 37 41 20 22 - - -
24/01:30am - - - - - NW 33 39 18 21 - - -
24/01:00am - - - - - WNW 37 43 20 23 - - -
24/12:30am - - - - - WNW 35 41 19 22 - - -
24/12:00am - - - - - WNW 39 44 21 24 - - -
 
Date/Time
EST
Temp
°C
App
Temp
°C
Dew
Point
°C
Rel
Hum
%
Delta-T
°C
Wind Press
QNH
hPa
Press
MSL
hPa
Rain since
9am
mm
Dir  Spd
km/h
Gust
km/h
Spd
kts
Gust
kts
23/11:30pm - - - - - WNW 41 48 22 26 - - -
23/11:00pm - - - - - WNW 39 46 21 25 - - -
23/10:30pm - - - - - WNW 43 52 23 28 - - -
23/10:00pm - - - - - WNW 43 50 23 27 - - -
23/09:30pm - - - - - WNW 46 52 25 28 - - -
23/09:00pm - - - - - WNW 43 50 23 27 - - -
23/08:30pm - - - - - WNW 43 50 23 27 - - -
23/08:00pm - - - - - WNW 41 48 22 26 - - -
23/07:30pm - - - - - NW 39 50 21 27 - - -
23/07:00pm - - - - - WNW 41 50 22 27 - - -
23/06:30pm - - - - - WNW 44 52 24 28 - - -
23/06:00pm - - - - - WNW 43 54 23 29 - - -
23/05:30pm - - - - - WNW 39 48 21 26 - - -
23/05:00pm - - - - - WNW 43 52 23 28 - - -
23/04:30pm - - - - - W 39 46 21 25 - - -

Other Formats:

Comma delimited format used in spreadsheet applications
http://www.bom.gov.au/fwo/IDV60801/IDV60801.94853.axf

JavaScript Object Notation format (JSON) in row-major order
http://www.bom.gov.au/fwo/IDV60801/IDV60801.94853.json